createdAt,value
2018-08-31T00:00:07.749Z,91.02
2018-08-31T00:01:07.788Z,91.22
2018-08-31T00:02:07.734Z,91.08
2018-08-31T00:03:07.717Z,91.12
2018-08-31T00:04:07.705Z,90.88
2018-08-31T00:05:07.694Z,91.08
2018-08-31T00:06:07.697Z,90.88
2018-08-31T00:07:07.710Z,91.08
2018-08-31T00:08:07.661Z,90.57
2018-08-31T00:09:07.654Z,90.67
2018-08-31T00:10:07.639Z,90.67
2018-08-31T00:11:07.641Z,90.57
2018-08-31T00:12:07.619Z,89.86
2018-08-31T00:13:07.636Z,89.55
2018-08-31T00:14:07.596Z,89.96
2018-08-31T00:15:07.586Z,89.65
2018-08-31T00:16:07.591Z,89.35
2018-08-31T00:17:07.564Z,89.55
2018-08-31T00:18:07.555Z,89.04
2018-08-31T00:19:07.573Z,89.45
2018-08-31T00:20:07.532Z,89.04
2018-08-31T00:21:07.535Z,88.23
2018-08-31T00:22:07.511Z,88.64
2018-08-31T00:23:07.502Z,87.63
2018-08-31T00:24:07.490Z,88.70
2018-08-31T00:25:07.521Z,88.03
2018-08-31T00:26:07.484Z,88.54
2018-08-31T00:27:07.455Z,87.63
2018-08-31T00:28:07.452Z,87.69
2018-08-31T00:29:07.436Z,87.59
2018-08-31T00:30:07.425Z,88.40
2018-08-31T00:31:07.467Z,87.69
2018-08-31T00:32:07.408Z,87.93
2018-08-31T00:33:07.395Z,87.69
2018-08-31T00:34:07.384Z,88.34
2018-08-31T00:35:07.371Z,88.95
2018-08-31T00:36:07.366Z,89.76
2018-08-31T00:37:07.396Z,89.35
2018-08-31T00:38:07.339Z,90.16
2018-08-31T00:39:07.330Z,90.67
2018-08-31T00:40:07.319Z,91.08
2018-08-31T00:41:07.307Z,91.02
2018-08-31T00:42:07.316Z,91.52
2018-08-31T00:43:07.303Z,91.52
2018-08-31T00:44:07.277Z,91.63
2018-08-31T00:45:07.267Z,91.73
2018-08-31T00:46:07.258Z,91.52
2018-08-31T00:47:07.256Z,92.13
2018-08-31T00:48:07.234Z,92.54
2018-08-31T00:49:07.260Z,92.54
2018-08-31T00:50:07.214Z,92.68
2018-08-31T00:51:07.200Z,92.38
2018-08-31T00:52:07.203Z,92.68
2018-08-31T00:53:07.186Z,92.48
2018-08-31T00:54:07.169Z,92.79
2018-08-31T00:55:07.196Z,92.89
2018-08-31T00:56:07.148Z,92.18
2018-08-31T00:57:07.151Z,92.03
2018-08-31T00:58:07.126Z,91.47
2018-08-31T00:59:07.115Z,91.52
2018-08-31T01:00:07.105Z,91.47
2018-08-31T01:01:07.127Z,91.87
2018-08-31T01:02:07.100Z,91.77
2018-08-31T01:03:07.078Z,91.87
2018-08-31T01:04:07.064Z,91.73
2018-08-31T01:05:07.052Z,91.77
2018-08-31T01:06:07.041Z,91.97
2018-08-31T01:07:07.091Z,92.18
2018-08-31T01:08:07.023Z,91.87
2018-08-31T01:09:07.653Z,91.16
2018-08-31T01:10:06.999Z,91.16
2018-08-31T01:11:06.987Z,91.06
2018-08-31T01:12:07.001Z,90.96
2018-08-31T01:13:06.989Z,91.16
2018-08-31T01:14:06.955Z,90.81
2018-08-31T01:15:06.948Z,90.92
2018-08-31T01:16:06.934Z,90.92
2018-08-31T01:17:06.924Z,90.71
2018-08-31T01:18:06.927Z,91.12
2018-08-31T01:19:06.942Z,90.71
2018-08-31T01:20:06.892Z,90.92
2018-08-31T01:21:06.881Z,91.02
2018-08-31T01:22:06.870Z,91.63
2018-08-31T01:23:06.872Z,91.63
2018-08-31T01:24:06.851Z,91.73
2018-08-31T01:25:06.876Z,91.42
2018-08-31T01:26:06.828Z,92.03
2018-08-31T01:27:06.817Z,91.87
2018-08-31T01:28:06.821Z,92.28
2018-08-31T01:29:06.796Z,92.58
2018-08-31T01:30:06.786Z,92.38
2018-08-31T01:31:06.824Z,92.79
2018-08-31T01:32:06.764Z,93.13
2018-08-31T01:33:06.770Z,93.13
2018-08-31T01:34:06.743Z,93.74
2018-08-31T01:35:06.734Z,93.54
2018-08-31T01:36:06.722Z,93.13
2018-08-31T01:37:06.742Z,93.44
2018-08-31T01:38:06.717Z,93.68
2018-08-31T01:39:06.694Z,93.79
2018-08-31T01:40:06.685Z,92.87
2018-08-31T01:41:06.669Z,93.28
2018-08-31T01:42:06.659Z,92.87
2018-08-31T01:43:06.701Z,92.32
2018-08-31T01:44:06.636Z,92.42
2018-08-31T01:45:06.627Z,91.30
2018-08-31T01:46:06.615Z,91.36
2018-08-31T01:47:06.604Z,90.55
2018-08-31T01:48:06.609Z,90.66
2018-08-31T01:49:06.610Z,90.35
2018-08-31T01:50:06.573Z,90.55
2018-08-31T01:51:06.565Z,90.66
2018-08-31T01:52:06.550Z,89.70
2018-08-31T01:53:06.564Z,89.39
2018-08-31T01:54:06.529Z,89.90
2018-08-31T01:55:06.576Z,89.90
2018-08-31T01:56:06.508Z,89.90
2018-08-31T01:57:06.498Z,89.50
2018-08-31T01:58:06.487Z,89.35
2018-08-31T01:59:06.491Z,89.15
2018-08-31T02:00:06.468Z,90.31
2018-08-31T02:01:06.492Z,90.51
2018-08-31T02:02:06.449Z,90.81
2018-08-31T02:03:06.435Z,91.52
2018-08-31T02:04:06.552Z,91.22
2018-08-31T02:05:06.412Z,91.47
2018-08-31T02:06:06.403Z,92.07
2018-08-31T02:07:06.409Z,92.18
2018-08-31T02:08:06.381Z,92.28
2018-08-31T02:09:06.660Z,92.48
2018-08-31T02:10:06.360Z,93.03
2018-08-31T02:11:06.349Z,93.64
2018-08-31T02:12:06.341Z,94.15
2018-08-31T02:13:06.345Z,93.79
2018-08-31T02:14:06.331Z,94.40
2018-08-31T02:15:06.306Z,94.50
2018-08-31T02:16:06.296Z,94.40
2018-08-31T02:17:06.292Z,94.20
2018-08-31T02:18:06.276Z,94.34
2018-08-31T02:19:06.343Z,94.70
2018-08-31T02:20:06.253Z,94.85
2018-08-31T02:21:06.243Z,95.76
2018-08-31T02:22:06.232Z,95.76
2018-08-31T02:23:06.222Z,95.76
2018-08-31T02:24:06.256Z,95.36
2018-08-31T02:25:06.204Z,96.17
2018-08-31T02:26:06.191Z,95.86
2018-08-31T02:27:06.206Z,95.36
2018-08-31T02:28:06.170Z,95.15
2018-08-31T02:29:06.179Z,95.40
2018-08-31T02:30:06.185Z,95.97
2018-08-31T02:31:06.138Z,95.56
2018-08-31T02:32:06.125Z,95.30
2018-08-31T02:33:06.116Z,95.50
2018-08-31T02:34:06.122Z,95.61
2018-08-31T02:35:06.131Z,95.40
2018-08-31T02:36:06.082Z,95.91
2018-08-31T02:37:06.071Z,95.70
2018-08-31T02:38:06.062Z,95.81
2018-08-31T02:39:06.074Z,95.54
2018-08-31T02:40:06.041Z,95.34
2018-08-31T02:41:06.063Z,96.26
2018-08-31T02:42:06.020Z,97.28
2018-08-31T02:43:06.006Z,96.77
2018-08-31T02:44:06.006Z,97.48
2018-08-31T02:45:05.984Z,96.87
2018-08-31T02:46:05.978Z,97.38
2018-08-31T02:47:06.022Z,97.17
2018-08-31T02:48:05.951Z,96.92
2018-08-31T02:49:05.968Z,97.53
2018-08-31T02:50:05.930Z,97.42
2018-08-31T02:51:05.918Z,97.42
2018-08-31T02:52:05.907Z,97.22
2018-08-31T02:53:05.937Z,97.32
2018-08-31T02:54:05.883Z,97.12
2018-08-31T02:55:05.886Z,97.57
2018-08-31T02:56:05.862Z,97.57
2018-08-31T02:57:05.850Z,97.47
2018-08-31T02:58:05.839Z,97.16
2018-08-31T02:59:05.877Z,97.16
2018-08-31T03:00:05.830Z,97.47
2018-08-31T03:01:05.808Z,97.67
2018-08-31T03:02:05.797Z,97.37
2018-08-31T03:03:05.786Z,97.62
2018-08-31T03:04:05.773Z,97.72
2018-08-31T03:05:05.801Z,97.72
2018-08-31T03:06:05.751Z,97.21
2018-08-31T03:07:05.741Z,97.82
2018-08-31T03:08:05.729Z,97.82
2018-08-31T03:09:05.719Z,97.31
2018-08-31T03:10:05.725Z,97.41
2018-08-31T03:11:05.725Z,97.87
2018-08-31T03:12:05.690Z,97.82
2018-08-31T03:13:05.677Z,97.92
2018-08-31T03:14:05.665Z,97.87
2018-08-31T03:15:05.670Z,98.23
2018-08-31T03:16:05.643Z,98.33
2018-08-31T03:17:05.666Z,98.94
2018-08-31T03:18:05.621Z,99.00
2018-08-31T03:19:05.611Z,98.94
2018-08-31T03:20:05.613Z,98.69
2018-08-31T03:21:05.611Z,98.69
2018-08-31T03:22:05.577Z,98.69
2018-08-31T03:23:05.601Z,98.69
2018-08-31T03:24:05.563Z,99.10
2018-08-31T03:25:05.561Z,98.90
2018-08-31T03:26:05.537Z,99.05
2018-08-31T03:27:05.526Z,99.26
2018-08-31T03:28:05.515Z,99.26
2018-08-31T03:29:05.537Z,99.36
2018-08-31T03:30:05.508Z,99.16
2018-08-31T03:31:05.492Z,99.16
2018-08-31T03:32:05.474Z,99.26
2018-08-31T03:33:05.462Z,99.26
2018-08-31T03:34:05.462Z,99.05
2018-08-31T03:35:05.474Z,99.16
2018-08-31T03:36:05.455Z,99.46
2018-08-31T03:37:05.557Z,99.05
2018-08-31T03:38:05.413Z,98.95
2018-08-31T03:39:05.396Z,99.16
2018-08-31T03:40:05.404Z,99.05
2018-08-31T03:41:05.376Z,99.21
2018-08-31T03:42:05.399Z,99.21
2018-08-31T03:43:05.357Z,99.36
2018-08-31T03:44:05.340Z,99.36
2018-08-31T03:45:05.349Z,99.16
2018-08-31T03:46:05.319Z,99.21
2018-08-31T03:47:05.308Z,98.91
2018-08-31T03:48:05.345Z,99.31
2018-08-31T03:49:05.286Z,99.11
2018-08-31T03:50:05.305Z,98.91
2018-08-31T03:51:05.262Z,99.21
2018-08-31T03:52:05.253Z,99.47
2018-08-31T03:53:05.257Z,99.31
2018-08-31T03:54:05.232Z,99.31
2018-08-31T03:55:05.223Z,99.01
2018-08-31T03:56:05.227Z,99.11
2018-08-31T03:57:05.201Z,99.21
2018-08-31T03:58:05.188Z,98.91
2018-08-31T03:59:05.221Z,99.11
2018-08-31T04:00:05.166Z,98.85
2018-08-31T04:01:05.168Z,98.85
2018-08-31T04:02:05.142Z,98.85
2018-08-31T04:03:05.135Z,98.85
2018-08-31T04:04:05.120Z,98.85
2018-08-31T04:05:05.145Z,98.65
2018-08-31T04:06:05.114Z,98.85
2018-08-31T04:07:05.086Z,98.95
2018-08-31T04:08:05.078Z,99.11
2018-08-31T04:09:05.071Z,98.95
2018-08-31T04:10:05.056Z,99.05
2018-08-31T04:11:05.111Z,98.85
2018-08-31T04:12:05.033Z,99.16
2018-08-31T04:13:05.023Z,98.85
2018-08-31T04:14:05.010Z,99.26
2018-08-31T04:15:05.076Z,99.21
2018-08-31T04:16:05.004Z,99.01
2018-08-31T04:17:05.011Z,99.21
2018-08-31T04:18:04.968Z,99.31
2018-08-31T04:19:04.958Z,99.11
2018-08-31T04:20:04.943Z,99.11
2018-08-31T04:21:04.949Z,99.31
2018-08-31T04:22:04.927Z,99.21
2018-08-31T04:23:04.947Z,99.21
2018-08-31T04:24:04.900Z,99.31
2018-08-31T04:25:04.892Z,99.41
2018-08-31T04:26:04.896Z,99.21
2018-08-31T04:27:04.865Z,99.31
2018-08-31T04:28:04.862Z,98.91
2018-08-31T04:29:04.876Z,99.27
2018-08-31T04:30:04.835Z,99.47
2018-08-31T04:31:04.838Z,99.47
2018-08-31T04:32:04.813Z,98.96
2018-08-31T04:33:04.802Z,99.37
2018-08-31T04:34:04.803Z,99.37
2018-08-31T04:35:04.807Z,99.06
2018-08-31T04:36:04.787Z,99.16
2018-08-31T04:37:04.756Z,98.96
2018-08-31T04:38:04.748Z,99.16
2018-08-31T04:39:04.736Z,99.06
2018-08-31T04:40:04.726Z,99.06
2018-08-31T04:41:04.772Z,99.27
2018-08-31T04:42:04.703Z,99.16
2018-08-31T04:43:04.691Z,99.16
2018-08-31T04:44:04.680Z,98.96
2018-08-31T04:45:04.669Z,99.16
2018-08-31T04:46:04.671Z,99.02
2018-08-31T04:47:04.682Z,99.16
2018-08-31T04:48:04.635Z,99.22
2018-08-31T04:49:04.624Z,99.47
2018-08-31T04:50:04.612Z,99.47
2018-08-31T04:51:04.614Z,99.27
2018-08-31T04:52:04.590Z,99.42
2018-08-31T04:53:04.614Z,99.47
2018-08-31T04:54:04.569Z,99.22
2018-08-31T04:55:04.557Z,99.16
2018-08-31T04:56:04.559Z,99.06
2018-08-31T04:57:04.539Z,99.27
2018-08-31T04:58:04.529Z,99.27
2018-08-31T04:59:04.551Z,99.42
2018-08-31T05:00:04.503Z,99.22
2018-08-31T05:01:04.516Z,99.47
2018-08-31T05:02:04.480Z,99.32
2018-08-31T05:03:04.469Z,98.81
2018-08-31T05:04:04.464Z,99.02
2018-08-31T05:05:04.490Z,98.86
2018-08-31T05:06:04.461Z,99.32
2018-08-31T05:07:04.441Z,99.02
2018-08-31T05:08:04.420Z,98.81
2018-08-31T05:09:04.409Z,98.91
2018-08-31T05:10:04.393Z,99.22
2018-08-31T05:11:04.383Z,98.81
2018-08-31T05:12:04.422Z,98.97
2018-08-31T05:13:04.363Z,99.17
2018-08-31T05:14:04.354Z,99.17
2018-08-31T05:15:04.342Z,98.91
2018-08-31T05:16:04.392Z,98.66
2018-08-31T05:17:04.332Z,98.77
2018-08-31T05:18:04.338Z,98.66
2018-08-31T05:19:04.297Z,98.46
2018-08-31T05:20:04.287Z,98.77
2018-08-31T05:21:04.276Z,98.46
2018-08-31T05:22:04.278Z,98.46
2018-08-31T05:23:04.265Z,97.96
2018-08-31T05:24:04.281Z,97.85
2018-08-31T05:25:04.233Z,97.85
2018-08-31T05:26:04.222Z,96.99
2018-08-31T05:27:04.227Z,97.44
2018-08-31T05:28:04.202Z,97.24
2018-08-31T05:29:04.193Z,97.30
2018-08-31T05:30:04.213Z,96.69
2018-08-31T05:31:04.172Z,96.69
2018-08-31T05:32:04.177Z,96.69
2018-08-31T05:33:04.149Z,96.59
2018-08-31T05:34:04.140Z,96.69
2018-08-31T05:35:04.126Z,96.99
2018-08-31T05:36:04.143Z,97.09
2018-08-31T05:37:04.118Z,96.48
2018-08-31T05:38:04.096Z,96.38
2018-08-31T05:39:04.085Z,95.78
2018-08-31T05:40:04.079Z,95.67
2018-08-31T05:41:04.061Z,94.76
2018-08-31T05:42:04.098Z,94.92
2018-08-31T05:43:04.043Z,94.71
2018-08-31T05:44:04.040Z,94.61
2018-08-31T05:45:04.022Z,94.51
2018-08-31T05:46:04.012Z,95.22
2018-08-31T05:47:04.015Z,94.82
2018-08-31T05:48:04.012Z,95.83
2018-08-31T05:49:03.980Z,95.42
2018-08-31T05:50:03.967Z,95.73
2018-08-31T05:51:03.957Z,95.12
2018-08-31T05:52:03.959Z,95.22
2018-08-31T05:53:03.935Z,94.71
2018-08-31T05:54:03.956Z,95.22
2018-08-31T05:55:03.913Z,95.22
2018-08-31T05:56:03.904Z,95.63
2018-08-31T05:57:03.906Z,95.83
2018-08-31T05:58:03.882Z,95.83
2018-08-31T05:59:03.871Z,95.83
2018-08-31T06:00:03.888Z,95.63
2018-08-31T06:01:03.851Z,95.73
2018-08-31T06:02:03.886Z,95.73
2018-08-31T06:03:03.830Z,95.53
2018-08-31T06:04:03.819Z,95.53
2018-08-31T06:05:03.809Z,95.12
2018-08-31T06:06:03.819Z,95.32
2018-08-31T06:07:03.811Z,95.63
2018-08-31T06:08:03.776Z,95.94
2018-08-31T06:09:03.769Z,95.73
2018-08-31T06:10:03.759Z,96.14
2018-08-31T06:11:03.742Z,96.14
2018-08-31T06:12:07.048Z,95.83
2018-08-31T06:13:03.739Z,95.94
2018-08-31T06:14:03.715Z,96.14
2018-08-31T06:15:03.702Z,95.83
2018-08-31T06:16:03.703Z,95.83
2018-08-31T06:17:03.690Z,96.03
2018-08-31T06:18:03.720Z,96.14
2018-08-31T06:19:03.670Z,97.05
2018-08-31T06:20:03.651Z,96.89
2018-08-31T06:21:03.681Z,96.54
2018-08-31T06:22:03.628Z,95.73
2018-08-31T06:23:03.637Z,96.14
2018-08-31T06:24:03.646Z,96.14
2018-08-31T06:25:03.596Z,95.94
2018-08-31T06:26:03.583Z,96.03
2018-08-31T06:27:03.647Z,95.73
2018-08-31T06:28:03.576Z,95.83
2018-08-31T06:29:03.555Z,96.54
2018-08-31T06:30:03.567Z,96.54
2018-08-31T06:31:03.530Z,97.25
2018-08-31T06:32:03.521Z,96.84
2018-08-31T06:33:03.525Z,96.75
2018-08-31T06:34:03.498Z,96.64
2018-08-31T06:35:03.488Z,96.95
2018-08-31T06:36:03.506Z,96.64
2018-08-31T06:37:03.505Z,97.11
2018-08-31T06:38:03.470Z,97.11
2018-08-31T06:39:03.445Z,97.00
2018-08-31T06:40:03.440Z,97.05
2018-08-31T06:41:03.424Z,96.90
2018-08-31T06:42:03.454Z,96.70
2018-08-31T06:43:03.461Z,96.60
2018-08-31T06:44:03.392Z,96.50
2018-08-31T06:45:03.383Z,97.20
2018-08-31T06:46:03.372Z,97.31
2018-08-31T06:47:03.360Z,97.20
2018-08-31T06:48:03.349Z,96.60
2018-08-31T06:49:03.385Z,96.70
2018-08-31T06:50:03.329Z,96.60
2018-08-31T06:51:03.318Z,96.60
2018-08-31T06:52:03.309Z,96.70
2018-08-31T06:53:03.295Z,96.90
2018-08-31T06:54:03.298Z,95.89
2018-08-31T06:55:03.314Z,95.79
2018-08-31T06:56:03.263Z,95.58
2018-08-31T06:57:03.253Z,95.32
2018-08-31T06:58:03.242Z,94.92
2018-08-31T06:59:03.244Z,95.28
2018-08-31T07:00:03.221Z,95.22
2018-08-31T07:01:03.238Z,95.12
2018-08-31T07:02:03.199Z,95.02
2018-08-31T07:03:03.194Z,95.32
2018-08-31T07:04:03.191Z,95.83
2018-08-31T07:05:03.166Z,95.73
2018-08-31T07:06:03.158Z,96.14
2018-08-31T07:07:03.182Z,96.14
2018-08-31T07:08:03.168Z,95.22
2018-08-31T07:09:03.141Z,95.22
2018-08-31T07:10:03.114Z,96.03
2018-08-31T07:11:03.101Z,95.73
2018-08-31T07:12:03.093Z,95.22
2018-08-31T07:13:03.080Z,96.03
2018-08-31T07:14:03.124Z,95.22
2018-08-31T07:15:03.084Z,94.82
2018-08-31T07:16:03.083Z,96.14
2018-08-31T07:17:03.039Z,95.99
2018-08-31T07:18:03.028Z,95.32
2018-08-31T07:19:03.032Z,95.53
2018-08-31T07:20:03.006Z,95.63
2018-08-31T07:21:02.995Z,94.71
2018-08-31T07:22:03.000Z,94.92
2018-08-31T07:23:02.975Z,94.92
2018-08-31T07:24:02.994Z,94.71
2018-08-31T07:25:02.956Z,95.12
2018-08-31T07:26:02.944Z,95.68
2018-08-31T07:27:02.931Z,95.42
2018-08-31T07:28:02.936Z,95.79
2018-08-31T07:29:02.910Z,95.89
2018-08-31T07:30:02.912Z,96.09
2018-08-31T07:31:02.887Z,95.99
2018-08-31T07:32:02.904Z,95.89
2018-08-31T07:33:02.866Z,95.79
2018-08-31T07:34:02.869Z,95.94
2018-08-31T07:35:02.862Z,96.14
2018-08-31T07:36:02.833Z,95.89
2018-08-31T07:37:02.823Z,95.63
2018-08-31T07:38:02.812Z,94.92
2018-08-31T07:39:02.803Z,95.22
2018-08-31T07:40:02.844Z,95.83
2018-08-31T07:41:02.782Z,95.73
2018-08-31T07:42:02.773Z,96.54
2018-08-31T07:43:02.765Z,96.23
2018-08-31T07:44:02.749Z,96.80
2018-08-31T07:45:02.751Z,96.84
2018-08-31T07:46:02.747Z,96.84
2018-08-31T07:47:02.755Z,96.54
2018-08-31T07:48:02.709Z,96.64
2018-08-31T07:49:02.696Z,96.70
2018-08-31T07:50:02.701Z,96.60
2018-08-31T07:51:02.674Z,97.00
2018-08-31T07:52:02.663Z,95.89
2018-08-31T07:53:02.681Z,96.30
2018-08-31T07:54:02.642Z,95.89
2018-08-31T07:55:02.647Z,95.68
2018-08-31T07:56:02.620Z,96.30
2018-08-31T07:57:02.611Z,96.09
2018-08-31T07:58:02.601Z,95.89
2018-08-31T07:59:02.613Z,96.09
2018-08-31T08:00:02.593Z,96.09
2018-08-31T08:01:02.578Z,96.30
2018-08-31T08:02:02.557Z,96.39
2018-08-31T08:03:02.546Z,96.39
2018-08-31T08:04:02.536Z,96.30
2018-08-31T08:05:02.565Z,96.39
2018-08-31T08:06:02.534Z,96.30
2018-08-31T08:07:02.507Z,96.30
2018-08-31T08:08:02.496Z,95.99
2018-08-31T08:09:02.483Z,96.70
2018-08-31T08:10:02.497Z,96.39
2018-08-31T08:11:02.462Z,97.05
2018-08-31T08:12:02.469Z,96.80
2018-08-31T08:13:02.477Z,96.95
2018-08-31T08:14:02.484Z,96.23
2018-08-31T08:15:02.460Z,96.44
2018-08-31T08:16:02.448Z,96.03
2018-08-31T08:17:02.415Z,96.54
2018-08-31T08:18:02.417Z,95.94
2018-08-31T08:19:02.445Z,96.34
2018-08-31T08:20:02.368Z,97.05
2018-08-31T08:21:02.393Z,96.64
2018-08-31T08:22:02.352Z,97.05
2018-08-31T08:23:03.258Z,96.64
2018-08-31T08:24:02.389Z,96.95
2018-08-31T08:25:02.314Z,96.75
2018-08-31T08:26:02.332Z,96.54
2018-08-31T08:27:02.309Z,96.84
2018-08-31T08:28:02.280Z,96.75
2018-08-31T08:29:02.302Z,97.25
2018-08-31T08:30:02.262Z,97.05
2018-08-31T08:31:02.262Z,97.25
2018-08-31T08:32:02.256Z,96.75
2018-08-31T08:33:02.230Z,96.79
2018-08-31T08:34:02.220Z,96.84
2018-08-31T08:35:02.206Z,96.79
2018-08-31T08:36:02.258Z,95.98
2018-08-31T08:37:02.191Z,96.99
2018-08-31T08:38:02.194Z,96.69
2018-08-31T08:39:02.164Z,97.40
2018-08-31T08:40:02.153Z,96.69
2018-08-31T08:41:02.158Z,96.69
2018-08-31T08:42:02.146Z,97.09
2018-08-31T08:43:02.122Z,96.79
2018-08-31T08:44:02.130Z,96.48
2018-08-31T08:45:02.112Z,96.69
2018-08-31T08:46:02.117Z,96.99
2018-08-31T08:47:02.105Z,96.69
2018-08-31T08:48:02.086Z,97.20
2018-08-31T08:49:02.060Z,97.60
2018-08-31T08:50:02.071Z,97.50
2018-08-31T08:51:02.067Z,97.35
2018-08-31T08:52:02.036Z,97.05
2018-08-31T08:53:02.015Z,97.25
2018-08-31T08:54:02.020Z,97.35
2018-08-31T08:55:01.994Z,97.45
2018-08-31T08:56:02.003Z,97.45
2018-08-31T08:57:01.971Z,97.15
2018-08-31T08:58:01.971Z,97.56
2018-08-31T08:59:01.991Z,97.45
2018-08-31T09:00:01.953Z,97.20
2018-08-31T09:01:01.948Z,97.20
2018-08-31T09:02:01.923Z,96.14
2018-08-31T09:03:01.909Z,95.94
2018-08-31T09:04:01.897Z,96.23
2018-08-31T09:05:01.909Z,95.63
2018-08-31T09:06:01.903Z,94.66
2018-08-31T09:07:01.868Z,95.06
2018-08-31T09:08:01.855Z,95.37
2018-08-31T09:09:01.845Z,94.96
2018-08-31T09:10:01.836Z,94.45
2018-08-31T09:11:01.870Z,94.86
2018-08-31T09:12:01.891Z,94.66
2018-08-31T09:13:01.805Z,95.26
2018-08-31T09:14:01.826Z,95.87
2018-08-31T09:15:01.801Z,96.08
2018-08-31T09:16:01.838Z,96.03
2018-08-31T09:17:01.841Z,96.44
2018-08-31T09:18:01.866Z,96.34
2018-08-31T09:19:01.779Z,96.54
2018-08-31T09:20:01.728Z,96.75
2018-08-31T09:21:01.718Z,96.75
2018-08-31T09:22:01.735Z,96.95
2018-08-31T09:23:01.695Z,97.15
2018-08-31T09:24:01.708Z,97.20
2018-08-31T09:25:01.679Z,97.00
2018-08-31T09:26:01.663Z,97.20
2018-08-31T09:27:01.666Z,97.11
2018-08-31T09:28:01.641Z,97.11
2018-08-31T09:29:01.632Z,96.96
2018-08-31T09:30:01.645Z,96.96
2018-08-31T09:31:01.609Z,96.60
2018-08-31T09:32:01.610Z,96.55
2018-08-31T09:33:01.587Z,96.70
2018-08-31T09:34:01.576Z,97.11
2018-08-31T09:35:01.568Z,96.54
2018-08-31T09:36:01.580Z,96.64
2018-08-31T09:37:01.571Z,96.95
2018-08-31T09:38:01.544Z,96.75
2018-08-31T09:39:01.522Z,97.25
2018-08-31T09:40:01.511Z,97.00
2018-08-31T09:41:01.498Z,96.64
2018-08-31T09:42:01.501Z,96.64
2018-08-31T09:43:01.479Z,97.05
2018-08-31T09:44:01.511Z,97.35
2018-08-31T09:45:01.458Z,96.84
2018-08-31T09:46:01.465Z,96.54
2018-08-31T09:47:01.474Z,96.44
2018-08-31T09:48:01.438Z,96.95
2018-08-31T09:49:01.413Z,97.15
2018-08-31T09:50:01.426Z,96.75
2018-08-31T09:51:01.912Z,96.79
2018-08-31T09:52:01.382Z,97.30
2018-08-31T09:53:01.403Z,96.69
2018-08-31T09:54:01.385Z,97.20
2018-08-31T09:55:01.353Z,96.79
2018-08-31T09:56:01.339Z,96.73
2018-08-31T09:57:01.328Z,96.99
2018-08-31T09:58:01.330Z,97.09
2018-08-31T09:59:01.317Z,96.69
2018-08-31T10:00:01.325Z,96.99
2018-08-31T10:01:01.289Z,97.09
2018-08-31T10:02:01.274Z,97.30
2018-08-31T10:03:01.277Z,97.09
2018-08-31T10:04:01.256Z,97.09
2018-08-31T10:05:01.241Z,96.95
2018-08-31T10:06:01.253Z,97.25
2018-08-31T10:07:01.222Z,97.15
2018-08-31T10:08:01.225Z,97.25
2018-08-31T10:09:01.200Z,96.84
2018-08-31T10:10:01.187Z,97.25
2018-08-31T10:11:01.177Z,96.95
2018-08-31T10:12:01.183Z,96.54
2018-08-31T10:13:01.193Z,97.05
2018-08-31T10:14:01.143Z,96.95
2018-08-31T10:15:01.135Z,96.95
2018-08-31T10:16:01.122Z,95.57
2018-08-31T10:17:01.111Z,96.18
2018-08-31T10:18:01.113Z,96.34
2018-08-31T10:19:01.113Z,96.18
2018-08-31T10:20:01.080Z,96.28
2018-08-31T10:21:01.068Z,96.14
2018-08-31T10:22:01.056Z,96.14
2018-08-31T10:23:01.058Z,96.14
2018-08-31T10:24:01.038Z,96.54
2018-08-31T10:25:01.048Z,95.73
2018-08-31T10:26:01.051Z,95.83
2018-08-31T10:27:01.003Z,95.53
2018-08-31T10:28:01.021Z,95.79
2018-08-31T10:29:00.988Z,95.63
2018-08-31T10:30:00.977Z,95.22
2018-08-31T10:31:00.959Z,95.42
2018-08-31T10:32:00.960Z,95.89
2018-08-31T10:33:00.938Z,95.89
2018-08-31T10:34:00.940Z,96.35
2018-08-31T10:35:00.914Z,95.58
2018-08-31T10:36:00.904Z,95.48
2018-08-31T10:37:00.896Z,95.58
2018-08-31T10:38:00.898Z,95.28
2018-08-31T10:39:00.883Z,94.82
2018-08-31T10:40:00.863Z,94.71
2018-08-31T10:41:00.885Z,95.22
2018-08-31T10:42:00.847Z,95.78
2018-08-31T10:43:00.852Z,95.98
2018-08-31T10:44:00.963Z,96.14
2018-08-31T10:45:00.831Z,95.67
2018-08-31T10:46:00.856Z,94.51
2018-08-31T10:47:00.838Z,94.96
2018-08-31T10:48:00.774Z,95.57
2018-08-31T10:49:00.780Z,95.22
2018-08-31T10:50:00.789Z,95.53
2018-08-31T10:51:00.741Z,95.94
2018-08-31T10:52:00.731Z,95.22
2018-08-31T10:53:00.722Z,94.45
2018-08-31T10:54:00.723Z,94.96
2018-08-31T10:55:00.701Z,95.22
2018-08-31T10:56:00.719Z,95.73
2018-08-31T10:57:00.677Z,95.94
2018-08-31T10:58:00.669Z,95.42
2018-08-31T10:59:00.673Z,93.90
2018-08-31T11:00:00.642Z,94.56
2018-08-31T11:01:00.635Z,96.14
2018-08-31T11:02:00.640Z,95.73
2018-08-31T11:03:00.639Z,95.94
2018-08-31T11:04:00.615Z,95.73
2018-08-31T11:05:00.590Z,94.31
2018-08-31T11:06:00.582Z,95.02
2018-08-31T11:07:00.571Z,95.22
2018-08-31T11:08:00.560Z,95.94
2018-08-31T11:09:00.576Z,95.02
2018-08-31T11:10:00.596Z,93.70
2018-08-31T11:11:00.525Z,94.00
2018-08-31T11:12:00.515Z,95.12
2018-08-31T11:13:00.529Z,94.92
2018-08-31T11:14:00.526Z,95.63
2018-08-31T11:15:00.480Z,96.23
2018-08-31T11:16:00.486Z,96.09
2018-08-31T11:17:00.466Z,95.02
2018-08-31T11:18:00.447Z,94.10
2018-08-31T11:19:00.445Z,94.41
2018-08-31T11:20:00.441Z,94.92
2018-08-31T11:21:00.416Z,95.48
2018-08-31T11:22:00.446Z,95.58
2018-08-31T11:23:00.397Z,92.68
2018-08-31T11:24:00.384Z,93.90
2018-08-31T11:25:00.386Z,94.92
2018-08-31T11:26:00.374Z,94.71
2018-08-31T11:27:00.356Z,94.71
2018-08-31T11:28:00.382Z,94.35
2018-08-31T11:29:00.331Z,94.82
2018-08-31T11:30:00.334Z,94.96
2018-08-31T11:31:00.310Z,94.61
2018-08-31T11:32:00.297Z,94.92
2018-08-31T11:33:00.302Z,94.10
2018-08-31T11:34:00.304Z,94.71
2018-08-31T11:35:00.673Z,94.51
2018-08-31T11:36:00.255Z,93.24
2018-08-31T11:37:00.288Z,94.35
2018-08-31T11:38:00.234Z,94.25
2018-08-31T11:39:00.221Z,93.64
2018-08-31T11:40:00.262Z,94.61
2018-08-31T11:41:00.200Z,95.42
2018-08-31T11:42:00.192Z,95.94
2018-08-31T11:43:00.181Z,94.92
2018-08-31T11:44:00.167Z,95.58
2018-08-31T11:45:00.205Z,95.99
2018-08-31T11:46:00.148Z,96.45
2018-08-31T11:47:00.137Z,95.64
2018-08-31T11:48:00.131Z,95.23
2018-08-31T11:49:00.115Z,93.55
2018-08-31T11:50:00.120Z,93.86
2018-08-31T11:51:00.134Z,93.76
2018-08-31T11:52:00.082Z,93.45
2018-08-31T11:53:00.073Z,93.60
2018-08-31T11:54:00.061Z,94.98
2018-08-31T11:55:00.063Z,94.98
2018-08-31T11:56:00.043Z,95.68
2018-08-31T11:57:00.070Z,93.49
2018-08-31T11:58:00.024Z,94.77
2018-08-31T11:59:00.007Z,94.87
2018-08-31T12:00:00.011Z,94.10
2018-08-31T12:01:00.028Z,93.60
2018-08-31T12:02:00.084Z,95.02
2018-08-31T12:03:00.000Z,95.63
2018-08-31T12:03:59.953Z,95.63
2018-08-31T12:04:59.954Z,95.94
2018-08-31T12:05:59.935Z,95.79
2018-08-31T12:06:59.920Z,95.99
2018-08-31T12:07:59.918Z,95.99
2018-08-31T12:08:59.967Z,94.67
2018-08-31T12:09:59.889Z,94.67
2018-08-31T12:10:59.900Z,96.19
2018-08-31T12:11:59.868Z,95.99
2018-08-31T12:12:59.857Z,95.58
2018-08-31T12:13:59.853Z,95.79
2018-08-31T12:14:59.888Z,95.43
2018-08-31T12:15:59.837Z,94.57
2018-08-31T12:16:59.814Z,95.18
2018-08-31T12:17:59.803Z,94.98
2018-08-31T12:18:59.796Z,94.06
2018-08-31T12:19:59.780Z,93.55
2018-08-31T12:20:59.843Z,93.90
2018-08-31T12:21:59.760Z,95.12
2018-08-31T12:22:59.749Z,94.87
2018-08-31T12:23:59.811Z,95.18
2018-08-31T12:24:59.806Z,94.98
2018-08-31T12:25:59.793Z,94.57
2018-08-31T12:26:59.877Z,94.98
2018-08-31T12:27:59.697Z,94.62
2018-08-31T12:28:59.684Z,95.13
2018-08-31T12:29:59.672Z,94.02
2018-08-31T12:30:59.689Z,94.68
2018-08-31T12:31:59.654Z,94.07
2018-08-31T12:32:59.676Z,94.27
2018-08-31T12:33:59.634Z,93.77
2018-08-31T12:34:59.619Z,94.38
2018-08-31T12:35:59.631Z,93.62
2018-08-31T12:36:59.615Z,93.62
2018-08-31T12:37:59.592Z,93.67
2018-08-31T12:38:59.576Z,93.93
2018-08-31T12:39:59.606Z,93.62
2018-08-31T12:40:59.555Z,92.76
2018-08-31T12:41:59.558Z,93.87
2018-08-31T12:42:59.536Z,93.97
2018-08-31T12:43:59.701Z,94.13
2018-08-31T12:44:59.514Z,94.07
2018-08-31T12:45:59.535Z,92.76
2018-08-31T12:46:59.513Z,93.57
2018-08-31T12:47:59.484Z,94.23
2018-08-31T12:48:59.473Z,94.07
2018-08-31T12:49:59.460Z,92.65
2018-08-31T12:50:59.448Z,93.87
2018-08-31T12:51:59.507Z,93.52